Time;durP1;ratioP1;P1;durP2;ratioP2;P2;SDS_P1;SDS_P2;PMS_P1;PMS_P2;Temp;Humidity;BMP_temperature;BMP_pressure;BME280_temperature;BME280_humidity;BME280_pressure;Samples;Min_cycle;Max_cycle;Signal;HPM_P1;HPM_P2
2021/11/09 00:00:29;;;;;;;7.05;2.97;;;;;;;8.91;77.29;101578.25;4988066;28;20038;-79
2021/11/09 00:02:54;;;;;;;9.52;3.22;;;;;;;8.91;77.64;101578.25;4977803;28;20094;-78
2021/11/09 00:05:23;;;;;;;7.78;3.08;;;;;;;8.93;77.59;101581.78;4987279;28;20039;-79
2021/11/09 00:07:55;;;;;;;8.80;3.00;;;;;;;8.97;77.87;101573.06;4986315;28;20493;-79
2021/11/09 00:10:21;;;;;;;8.02;3.28;;;;;;;8.96;77.40;101576.53;4987035;28;20038;-79
2021/11/09 00:12:52;;;;;;;7.13;3.10;;;;;;;8.98;77.74;101582.75;4986102;28;20034;-79
2021/11/09 00:15:20;;;;;;;9.32;3.35;;;;;;;8.96;77.67;101587.09;4988024;28;20046;-78
2021/11/09 00:17:49;;;;;;;8.75;3.47;;;;;;;8.95;77.15;101580.06;4986349;28;20030;-79
2021/11/09 00:20:18;;;;;;;8.95;3.10;;;;;;;8.95;77.97;101580.06;4987120;28;20103;-78
2021/11/09 00:22:44;;;;;;;9.00;3.83;;;;;;;8.96;77.45;101579.19;4985058;28;20045;-78
2021/11/09 00:25:11;;;;;;;8.30;2.88;;;;;;;9.02;77.40;101583.69;4986176;28;20054;-78
2021/11/09 00:27:36;;;;;;;8.00;3.08;;;;;;;9.00;77.93;101586.28;4986545;28;20102;-79
2021/11/09 00:30:04;;;;;;;9.85;3.40;;;;;;;9.06;77.64;101583.75;4978203;28;20043;-79
2021/11/09 00:32:29;;;;;;;8.35;3.20;;;;;;;9.06;77.67;101578.47;4986613;28;20030;-79
2021/11/09 00:34:55;;;;;;;10.55;3.47;;;;;;;9.02;77.79;101587.22;4978338;28;20504;-79
2021/11/09 00:37:20;;;;;;;12.18;4.03;;;;;;;8.95;78.45;101585.31;4986455;28;20513;-79
2021/11/09 00:39:46;;;;;;;10.18;3.45;;;;;;;8.91;78.57;101588.78;4986740;28;20046;-79
2021/11/09 00:42:14;;;;;;;10.18;3.25;;;;;;;8.89;78.91;101596.63;4992635;28;20466;-78
2021/11/09 00:44:39;;;;;;;10.40;4.03;;;;;;;8.88;78.92;101596.59;4986453;28;20039;-78
2021/11/09 00:47:05;;;;;;;8.32;2.85;;;;;;;8.76;79.91;101605.16;4986230;28;20034;-78
2021/11/09 00:49:31;;;;;;;11.85;4.35;;;;;;;8.68;79.93;101607.66;4976927;28;20049;-78
2021/11/09 00:51:57;;;;;;;11.57;4.53;;;;;;;8.71;80.82;101610.34;4986504;28;20046;-79
2021/11/09 00:54:22;;;;;;;10.23;4.20;;;;;;;8.71;80.88;101612.97;4976248;28;20706;-78
2021/11/09 00:56:48;;;;;;;12.77;4.97;;;;;;;8.71;80.95;101605.06;4994034;28;20031;-79
2021/11/09 00:59:14;;;;;;;12.20;3.90;;;;;;;8.71;81.36;101609.47;4993148;28;20050;-78
2021/11/09 01:01:39;;;;;;;8.43;3.70;;;;;;;8.72;81.60;101612.13;4987117;28;20031;-79
2021/11/09 01:04:06;;;;;;;11.68;4.75;;;;;;;8.67;81.89;101616.44;4993254;28;20070;-79
2021/11/09 01:06:32;;;;;;;10.00;4.32;;;;;;;8.67;81.61;101613.78;4986733;28;20050;-79
2021/11/09 01:08:58;;;;;;;11.98;3.95;;;;;;;8.63;81.58;101614.59;4985777;28;20034;-79
2021/11/09 01:11:24;;;;;;;14.32;4.70;;;;;;;8.65;81.85;101612.00;4986727;28;20405;-78
2021/11/09 01:13:50;;;;;;;10.68;3.97;;;;;;;8.63;81.75;101621.59;4984524;28;20041;-79
2021/11/09 01:16:16;;;;;;;10.75;4.00;;;;;;;8.59;82.54;101618.00;4993664;28;20043;-79
2021/11/09 01:18:48;;;;;;;8.73;3.97;;;;;;;8.56;82.15;101618.81;4977602;28;20035;-78
2021/11/09 01:21:17;;;;;;;14.50;4.72;;;;;;;8.55;82.82;101626.72;4986071;28;20066;-79
2021/11/09 01:23:44;;;;;;;12.07;5.13;;;;;;;8.59;82.85;101620.63;4976388;28;20034;-79
2021/11/09 01:26:10;;;;;;;11.73;4.63;;;;;;;8.54;82.70;101620.56;4991470;28;20097;-78
2021/11/09 01:28:37;;;;;;;13.90;5.03;;;;;;;8.52;82.69;101618.75;4968921;28;20031;-79
2021/11/09 01:31:04;;;;;;;11.95;4.53;;;;;;;8.55;83.25;101618.81;5000170;28;20037;-78
2021/11/09 01:33:29;;;;;;;9.45;3.97;;;;;;;8.55;83.35;101617.06;4980741;28;20035;-79
2021/11/09 01:35:55;;;;;;;12.43;4.72;;;;;;;8.54;83.17;101615.31;4990560;28;20098;-79
2021/11/09 01:38:20;;;;;;;11.02;4.20;;;;;;;8.57;83.46;101619.75;4980311;28;20046;-79
2021/11/09 01:40:46;;;;;;;11.10;5.13;;;;;;;8.58;83.52;101620.63;4990019;28;20130;-78
2021/11/09 01:43:14;;;;;;;9.93;4.07;;;;;;;8.58;83.01;101623.25;4989129;28;20507;-79
2021/11/09 01:45:40;;;;;;;11.00;4.65;;;;;;;8.51;83.04;101620.50;4988435;28;20045;-79
2021/11/09 01:48:06;;;;;;;16.40;5.07;;;;;;;8.47;83.56;101630.94;4978295;28;20035;-79
2021/11/09 01:50:37;;;;;;;8.32;4.07;;;;;;;8.40;84.17;101639.56;4964581;28;20046;-79
2021/11/09 01:53:03;;;;;;;12.35;4.85;;;;;;;8.35;84.53;101640.28;4989851;28;20086;-79
2021/11/09 01:55:30;;;;;;;9.80;4.47;;;;;;;8.33;84.14;101628.88;4990399;28;20038;-79
2021/11/09 01:57:57;;;;;;;9.73;4.32;;;;;;;8.32;84.42;101629.72;4990445;28;20089;-79
2021/11/09 02:00:30;;;;;;;11.68;4.75;;;;;;;8.28;84.52;101640.16;4990243;28;20046;-79
2021/11/09 02:02:56;;;;;;;9.90;4.20;;;;;;;8.30;84.42;101641.06;4999065;28;20041;-79
2021/11/09 02:05:22;;;;;;;10.02;4.68;;;;;;;8.31;85.23;101622.69;4979659;28;20582;-78
2021/11/09 02:07:52;;;;;;;8.63;4.15;;;;;;;8.35;85.05;101623.63;4988417;28;20138;-79
2021/11/09 02:10:19;;;;;;;13.77;4.60;;;;;;;8.37;85.08;101631.56;4980653;28;20034;-79
2021/11/09 02:12:45;;;;;;;10.50;4.15;;;;;;;8.40;84.64;101632.53;4979696;28;20043;-79
2021/11/09 02:15:11;;;;;;;11.38;4.78;;;;;;;8.42;84.59;101636.09;4989503;28;20046;-79
2021/11/09 02:17:42;;;;;;;8.95;4.47;;;;;;;8.49;84.67;101637.13;4978996;28;20094;-78
2021/11/09 02:20:10;;;;;;;12.23;4.72;;;;;;;8.50;84.17;101631.00;4980377;28;20042;-78
2021/11/09 02:22:36;;;;;;;13.00;4.60;;;;;;;8.46;83.67;101635.31;4995912;28;20035;-78
2021/11/09 02:25:07;;;;;;;10.63;4.63;;;;;;;8.46;83.91;101637.94;4986186;28;20054;-79
2021/11/09 02:27:33;;;;;;;12.50;5.03;;;;;;;8.44;83.99;101639.66;4987796;28;20059;-78
2021/11/09 02:29:58;;;;;;;9.23;4.57;;;;;;;8.47;84.18;101630.94;4989101;28;20046;-79
2021/11/09 02:32:24;;;;;;;10.57;4.38;;;;;;;8.53;83.57;101633.69;4988778;28;20034;-79
2021/11/09 02:34:49;;;;;;;10.10;4.38;;;;;;;8.58;83.26;101634.66;4988677;28;20118;-79
2021/11/09 02:37:18;;;;;;;8.20;4.55;;;;;;;8.53;83.39;101629.28;4979043;28;20035;-79
2021/11/09 02:39:44;;;;;;;9.65;4.25;;;;;;;8.50;83.71;101634.50;4979460;28;20094;-79
2021/11/09 02:42:16;;;;;;;11.20;5.03;;;;;;;8.51;82.69;101640.66;4987899;28;20053;-79
2021/11/09 02:45:00;;;;;;;11.82;5.80;;;;;;;8.43;83.62;101650.13;4979390;28;20043;-78
2021/11/09 02:47:29;;;;;;;10.45;4.70;;;;;;;8.46;83.71;101653.72;4985924;28;20508;-79
2021/11/09 02:49:59;;;;;;;11.05;5.13;;;;;;;8.42;83.03;101653.63;4985642;28;20061;-79
2021/11/09 02:52:26;;;;;;;13.40;4.95;;;;;;;8.48;82.52;101659.88;4986104;28;20049;-79
2021/11/09 02:54:58;;;;;;;11.68;5.03;;;;;;;8.48;82.99;101661.63;4985463;28;20501;-79
2021/11/09 02:57:42;;;;;;;15.83;5.93;;;;;;;8.46;82.60;101656.38;4976111;28;20039;-79
2021/11/09 03:00:35;;;;;;;12.82;5.80;;;;;;;8.48;82.62;101661.63;4985639;28;20046;-79
2021/11/09 03:03:05;;;;;;;9.93;5.13;;;;;;;8.52;82.38;101658.22;4991856;28;20094;-79
2021/11/09 03:05:46;;;;;;;16.90;6.07;;;;;;;8.56;82.13;101660.03;4976173;28;20046;-79
2021/11/09 03:08:33;;;;;;;14.70;6.20;;;;;;;8.54;82.43;101649.50;4991730;28;20039;-79
2021/11/09 03:11:00;;;;;;;10.73;5.55;;;;;;;8.57;82.21;101656.56;4981546;28;20035;-79
2021/11/09 03:13:25;;;;;;;12.77;5.47;;;;;;;8.58;82.33;101663.59;4980169;28;20042;-78
2021/11/09 03:15:52;;;;;;;13.10;6.07;;;;;;;8.55;82.53;101666.19;4981013;28;20169;-79
2021/11/09 03:18:21;;;;;;;12.68;5.28;;;;;;;8.60;81.78;101663.66;4981209;28;20574;-78
2021/11/09 03:45:35;;;;;;;11.05;4.93;;;;;;;8.84;81.69;101692.19;4954888;28;20050;-79
2021/11/09 03:48:06;;;;;;;12.10;4.93;;;;;;;8.86;81.91;101687.84;4979509;28;20073;-79
2021/11/09 03:50:35;;;;;;;10.23;4.97;;;;;;;8.86;82.07;101690.47;4981634;28;20708;-79
2021/11/09 03:53:43;;;;;;;11.13;4.15;;;;;;;8.86;81.30;101691.38;4983139;28;20088;-79
2021/11/09 04:00:52;;;;;;;11.90;5.45;;;;;;;8.89;80.93;101695.81;4979619;28;20122;-79
2021/11/09 04:05:50;;;;;;;10.13;5.00;;;;;;;8.83;81.42;101700.91;4966781;28;20109;-78
2021/11/09 04:11:02;;;;;;;8.90;4.80;;;;;;;8.76;81.21;101700.81;4984705;28;20031;-79
2021/11/09 04:13:39;;;;;;;12.23;6.53;;;;;;;8.80;80.59;101714.03;4981479;28;20057;-79
2021/11/09 04:34:08;;;;;;;11.65;5.38;;;;;;;8.77;80.77;101730.66;4984115;28;20034;-78
2021/11/09 04:37:36;;;;;;;12.13;5.32;;;;;;;8.74;81.26;101725.31;4978678;28;20031;-78
2021/11/09 04:39:47;;;;;;;8.88;5.07;;;;;;;8.78;80.24;101720.16;4991248;28;20138;-78
2021/11/09 04:48:22;;;;;;;9.38;5.22;;;;;;;8.74;81.23;101739.38;4981311;28;20096;-79
2021/11/09 05:01:11;;;;;;;9.77;4.88;;;;;;;8.85;80.38;101746.59;4982667;28;20035;-79
2021/11/09 05:09:29;;;;;;;14.05;6.20;;;;;;;8.88;79.51;101746.66;4982640;28;20095;-79
2021/11/09 05:11:54;;;;;;;14.82;7.18;;;;;;;8.93;79.70;101745.91;4985904;28;20043;-78
2021/11/09 05:14:19;;;;;;;11.45;6.05;;;;;;;8.96;79.79;101748.59;4985038;28;20050;-78
2021/11/09 05:16:45;;;;;;;12.43;6.47;;;;;;;8.96;79.12;101743.34;4982551;28;20034;-78
2021/11/09 05:19:11;;;;;;;14.60;6.68;;;;;;;8.96;79.35;101747.69;4989151;28;20042;-79
2021/11/09 05:21:38;;;;;;;12.80;6.40;;;;;;;8.88;79.54;101755.47;4986704;28;20425;-78
2021/11/09 05:24:04;;;;;;;12.07;6.18;;;;;;;8.73;79.49;101752.53;4978422;28;20056;-78
2021/11/09 05:26:29;;;;;;;15.50;7.15;;;;;;;8.60;79.46;101772.41;4983690;28;20031;-78
2021/11/09 05:28:55;;;;;;;13.88;6.88;;;;;;;8.42;80.11;101761.50;4976441;28;20039;-78
2021/11/09 05:31:20;;;;;;;16.23;6.40;;;;;;;8.27;80.99;101767.25;4982405;28;20034;-78
2021/11/09 05:33:47;;;;;;;11.48;5.93;;;;;;;8.25;81.16;101772.50;4974891;28;20574;-79
2021/11/09 05:36:13;;;;;;;9.70;5.18;;;;;;;8.26;80.97;101771.63;4964658;28;20030;-77
2021/11/09 05:38:49;;;;;;;14.02;5.75;;;;;;;8.28;81.34;101779.56;4979137;28;20058;-78
2021/11/09 05:41:17;;;;;;;11.02;5.45;;;;;;;8.27;80.89;101783.91;4980802;28;20159;-78
2021/11/09 05:43:43;;;;;;;15.30;6.55;;;;;;;8.27;81.13;101788.28;4981684;28;20087;-78
2021/11/09 05:46:09;;;;;;;12.05;5.47;;;;;;;8.30;81.11;101788.34;4982559;28;20097;-78
2021/11/09 05:48:36;;;;;;;14.18;7.15;;;;;;;8.29;81.20;101800.63;4981917;28;20042;-79
2021/11/09 05:51:02;;;;;;;11.95;5.90;;;;;;;8.23;80.54;101802.25;4969548;28;20038;-79
2021/11/09 05:53:27;;;;;;;10.57;5.95;;;;;;;8.12;81.43;101805.50;4983723;28;20560;-79
2021/11/09 05:55:53;;;;;;;13.10;6.47;;;;;;;8.06;81.44;101809.69;4974724;28;20062;-77
2021/11/09 05:58:18;;;;;;;10.23;5.75;;;;;;;8.03;81.67;101817.53;4989560;28;20049;-78
2021/11/09 06:00:43;;;;;;;11.52;6.32;;;;;;;8.02;81.48;101818.38;4998471;28;20038;-78
2021/11/09 06:03:09;;;;;;;19.83;9.38;;;;;;;8.01;81.30;101827.97;4987148;28;20034;-79
2021/11/09 06:05:34;;;;;;;24.15;16.92;;;;;;;8.00;81.10;101825.34;4977190;28;20132;-78
2021/11/09 06:07:59;;;;;;;18.17;9.93;;;;;;;7.95;81.55;101826.97;4989113;28;20042;-78
2021/11/09 06:10:25;;;;;;;14.43;8.10;;;;;;;7.93;81.34;101831.28;4981301;28;20046;-78
2021/11/09 06:12:50;;;;;;;12.23;6.35;;;;;;;7.87;81.62;101840.78;4984423;28;20038;-78
2021/11/09 06:15:15;;;;;;;14.77;5.90;;;;;;;7.82;81.76;101842.41;4985745;28;20031;-79
2021/11/09 06:17:41;;;;;;;12.88;6.28;;;;;;;7.70;81.74;101852.59;4976620;28;20030;-79
2021/11/09 06:20:07;;;;;;;14.05;6.45;;;;;;;7.60;82.09;101855.84;4986054;28;20402;-78
2021/11/09 06:22:32;;;;;;;15.20;6.68;;;;;;;7.53;82.19;101861.78;4975907;28;20405;-78
2021/11/09 06:24:58;;;;;;;12.65;6.10;;;;;;;7.53;82.59;101862.66;4976186;28;20409;-78
2021/11/09 06:27:24;;;;;;;15.27;5.95;;;;;;;7.52;82.43;101867.84;4992213;28;20027;-78
2021/11/09 06:29:51;;;;;;;10.70;5.72;;;;;;;7.50;82.69;101877.44;4985666;28;20049;-78
2021/11/09 06:32:16;;;;;;;12.27;6.10;;;;;;;7.44;82.22;101881.69;4972613;28;20042;-78
2021/11/09 06:34:42;;;;;;;11.27;5.88;;;;;;;7.37;82.69;101874.47;4984680;28;20034;-78
2021/11/09 06:37:08;;;;;;;13.48;5.60;;;;;;;7.34;82.75;101889.25;4975882;28;20043;-78
2021/11/09 06:39:33;;;;;;;10.98;5.90;;;;;;;7.33;82.73;101884.84;4976379;28;20039;-78
2021/11/09 06:41:58;;;;;;;10.48;5.65;;;;;;;7.32;83.00;101894.47;4975601;28;20109;-78
2021/11/09 06:44:24;;;;;;;12.15;5.55;;;;;;;7.33;82.86;101893.59;4984969;28;20034;-78
2021/11/09 06:46:50;;;;;;;16.73;6.32;;;;;;;7.30;82.55;101896.13;4991701;28;20051;-79
2021/11/09 06:49:15;;;;;;;13.52;6.05;;;;;;;7.30;82.93;101897.88;4984321;28;20065;-78
2021/11/09 06:51:40;;;;;;;13.15;5.68;;;;;;;7.32;82.84;101897.09;4983736;28;20409;-78
2021/11/09 06:54:06;;;;;;;13.75;5.25;;;;;;;7.34;83.25;101900.66;4985043;28;20113;-78
2021/11/09 06:56:32;;;;;;;12.77;6.35;;;;;;;7.36;82.76;101912.09;4984943;28;20042;-78
2021/11/09 06:58:58;;;;;;;12.23;6.63;;;;;;;7.37;83.08;101916.50;4985736;28;20058;-78
2021/11/09 07:01:23;;;;;;;12.20;6.10;;;;;;;7.41;82.87;101913.13;4984149;28;20034;-78
2021/11/09 07:03:48;;;;;;;19.67;9.48;;;;;;;7.44;82.57;101913.22;4984034;28;20086;-78
2021/11/09 07:06:14;;;;;;;13.30;6.93;;;;;;;7.47;82.62;101931.69;4982806;28;20055;-78
2021/11/09 07:08:39;;;;;;;15.27;6.53;;;;;;;7.46;83.29;101932.50;4984403;28;20047;-78
2021/11/09 07:11:05;;;;;;;10.95;5.57;;;;;;;7.45;82.88;101928.09;4976246;28;20034;-78
2021/11/09 07:13:32;;;;;;;16.58;7.45;;;;;;;7.44;83.32;101928.97;4975581;28;20556;-78
2021/11/09 07:15:58;;;;;;;13.40;5.53;;;;;;;7.43;83.20;101942.94;4974890;28;20042;-78
2021/11/09 07:18:23;;;;;;;18.70;7.60;;;;;;;7.39;83.48;101937.56;4992011;28;20637;-78
2021/11/09 07:20:50;;;;;;;14.63;6.78;;;;;;;7.38;82.96;101933.13;4984877;28;20039;-78
2021/11/09 07:23:16;;;;;;;15.88;6.50;;;;;;;7.40;83.11;101934.06;4978988;28;20033;-78
2021/11/09 07:25:42;;;;;;;12.85;6.40;;;;;;;7.38;82.91;101944.53;4984446;28;20113;-78
2021/11/09 07:28:07;;;;;;;13.45;6.75;;;;;;;7.38;83.30;101938.38;4983963;28;20078;-78
2021/11/09 07:30:43;;;;;;;17.65;7.07;;;;;;;7.41;83.04;101949.91;4980164;28;20038;-78
2021/11/09 07:33:09;;;;;;;13.93;7.35;;;;;;;7.43;83.30;101956.06;4983231;28;20030;-78
2021/11/09 07:35:35;;;;;;;14.70;6.90;;;;;;;7.45;82.74;101956.13;4983542;28;20042;-78
2021/11/09 07:38:01;;;;;;;11.98;6.35;;;;;;;7.49;83.03;101955.34;4984057;28;20046;-78
2021/11/09 07:40:26;;;;;;;14.23;7.38;;;;;;;7.55;83.14;101962.53;4974141;28;20046;-78
2021/11/09 07:42:52;;;;;;;12.15;6.32;;;;;;;7.56;82.73;101959.06;4996356;28;20030;-78
2021/11/09 07:45:21;;;;;;;15.50;7.10;;;;;;;7.61;82.49;101968.84;4973013;28;20045;-78
2021/11/09 07:47:47;;;;;;;14.80;6.70;;;;;;;7.64;82.77;101970.66;4984092;28;20026;-78
2021/11/09 07:50:12;;;;;;;10.75;5.22;;;;;;;7.66;82.45;101972.50;4990422;28;20066;-78
2021/11/09 07:52:38;;;;;;;12.85;6.10;;;;;;;7.73;81.70;101976.22;4983516;28;20039;-77
2021/11/09 07:55:06;;;;;;;12.43;6.22;;;;;;;7.78;82.34;101982.50;4983777;28;20030;-78
2021/11/09 07:57:42;;;;;;;12.45;6.22;;;;;;;7.80;81.83;101986.03;4959283;28;20045;-78
2021/11/09 08:00:22;;;;;;;14.20;6.57;;;;;;;7.81;81.86;101992.19;4983500;28;20050;-78
2021/11/09 08:03:35;;;;;;;16.52;7.13;;;;;;;7.84;81.89;101993.16;4990504;28;20089;-78
2021/11/09 08:05:39;;;;;;;12.23;6.55;;;;;;;7.89;81.86;101991.56;4978939;28;20094;-78
2021/11/09 08:08:11;;;;;;;11.65;6.47;;;;;;;7.96;81.23;101997.84;4982975;28;20127;-78
2021/11/09 08:10:36;;;;;;;15.52;6.65;;;;;;;7.97;81.71;101998.78;4970936;28;20138;-78
2021/11/09 08:13:01;;;;;;;12.70;6.68;;;;;;;8.00;81.62;102009.38;4982694;28;20074;-78
2021/11/09 08:15:27;;;;;;;14.25;7.30;;;;;;;8.04;82.05;101996.38;4973591;28;20043;-78
2021/11/09 08:17:52;;;;;;;11.20;6.95;;;;;;;8.08;82.08;102006.09;4984219;28;20038;-78
2021/11/09 08:20:18;;;;;;;15.95;7.57;;;;;;;8.08;81.80;102018.38;4983117;28;20075;-78
2021/11/09 08:22:43;;;;;;;13.85;6.70;;;;;;;8.04;81.68;102019.09;4973644;28;20038;-78
2021/11/09 08:25:09;;;;;;;13.15;6.38;;;;;;;8.07;82.39;102016.59;4973967;28;20086;-78
2021/11/09 08:27:34;;;;;;;13.65;6.10;;;;;;;8.11;81.25;102023.69;4983285;28;20038;-78
2021/11/09 08:29:59;;;;;;;15.05;6.07;;;;;;;8.15;81.38;102025.59;4983452;28;20035;-78
2021/11/09 08:32:26;;;;;;;10.82;5.72;;;;;;;8.20;81.09;102021.34;4981678;28;20038;-78
2021/11/09 08:34:52;;;;;;;14.13;5.50;;;;;;;8.23;80.60;102024.03;4988693;28;20043;-78
2021/11/09 08:37:20;;;;;;;15.95;5.85;;;;;;;8.21;80.77;102025.75;4983042;28;20053;-78
2021/11/09 08:39:45;;;;;;;13.27;8.82;;;;;;;8.25;80.82;102026.69;4972820;28;20478;-79
2021/11/09 08:44:50;;;;;;;16.90;6.53;;;;;;;8.35;80.66;102034.88;4980561;28;20050;-78
2021/11/09 08:47:21;;;;;;;18.52;7.70;;;;;;;8.44;81.30;102033.41;4981727;28;20045;-78
2021/11/09 08:49:49;;;;;;;21.60;9.90;;;;;;;8.54;81.22;102035.41;4982496;28;20532;-78
2021/11/09 08:52:15;;;;;;;20.63;8.98;;;;;;;8.64;80.73;102039.19;4956386;28;20035;-78
2021/11/09 08:54:59;;;;;;;19.73;8.90;;;;;;;8.67;80.57;102032.28;4980529;28;20039;-78
2021/11/09 08:57:48;;;;;;;15.98;6.70;;;;;;;8.73;79.58;102034.16;4974185;28;20718;-78
2021/11/09 09:05:24;;;;;;;14.93;7.20;;;;;;;8.96;79.46;102039.97;4987277;28;20049;-78
2021/11/09 09:07:50;;;;;;;16.42;6.97;;;;;;;8.97;78.84;102047.03;4984527;28;20022;-79
2021/11/09 09:10:16;;;;;;;12.77;5.80;;;;;;;9.07;78.60;102042.91;4985754;28;20039;-78
2021/11/09 09:12:43;;;;;;;16.60;6.20;;;;;;;9.10;78.44;102043.84;4983934;28;20043;-78
2021/11/09 09:15:11;;;;;;;17.02;7.25;;;;;;;9.18;77.86;102034.38;4980952;28;20117;-78
2021/11/09 09:17:37;;;;;;;14.50;7.50;;;;;;;9.22;78.05;102037.97;4980674;28;20486;-78
2021/11/09 09:20:13;;;;;;;18.17;7.28;;;;;;;9.14;77.22;102040.44;4985044;28;20026;-78
2021/11/09 09:25:20;;;;;;;14.07;6.95;;;;;;;9.35;77.61;102040.06;4977203;28;20026;-78
2021/11/09 09:30:39;;;;;;;15.88;8.02;;;;;;;9.43;77.32;102040.22;4983923;28;20120;-79
2021/11/09 09:57:17;;;;;;;15.00;7.18;;;;;;;10.18;72.29;102040.91;4974462;28;20170;-78
2021/11/09 09:59:45;;;;;;;14.52;6.45;;;;;;;10.21;73.32;102047.13;4986089;28;20057;-79
2021/11/09 10:02:25;;;;;;;12.48;6.43;;;;;;;10.27;73.68;102052.59;4985260;28;20070;-79
2021/11/09 10:04:52;;;;;;;16.02;7.57;;;;;;;10.27;73.00;102051.63;4977960;28;20039;-79
2021/11/09 10:07:28;;;;;;;15.32;6.82;;;;;;;10.30;73.35;102042.09;4985951;28;20046;-78
2021/11/09 10:09:53;;;;;;;15.30;6.47;;;;;;;10.38;73.74;102044.88;4977539;28;20045;-78
2021/11/09 10:12:20;;;;;;;15.95;6.75;;;;;;;10.41;73.34;102047.56;4985470;28;20038;-78
2021/11/09 10:14:50;;;;;;;10.45;6.13;;;;;;;10.44;73.37;102044.97;4986824;28;20070;-78
2021/11/09 10:17:19;;;;;;;12.23;5.78;;;;;;;10.48;73.44;102041.53;4988625;28;20037;-78
2021/11/09 10:19:45;;;;;;;15.05;6.68;;;;;;;10.48;73.68;102038.91;4976140;28;20037;-78
2021/11/09 10:22:30;;;;;;;14.75;5.90;;;;;;;10.47;73.18;102031.81;4984925;28;20110;-78
2021/11/09 10:25:01;;;;;;;14.20;6.03;;;;;;;10.52;73.30;102032.81;4972969;28;20027;-78
2021/11/09 10:27:29;;;;;;;16.58;6.78;;;;;;;10.47;72.33;102036.22;4985054;28;20046;-78
2021/11/09 10:29:56;;;;;;;13.45;5.85;;;;;;;10.46;72.69;102035.34;4984883;28;20409;-78
2021/11/09 10:32:27;;;;;;;14.45;6.82;;;;;;;10.45;72.34;102028.28;4984423;28;20105;-79
2021/11/09 10:34:56;;;;;;;12.27;6.40;;;;;;;10.51;73.58;102023.13;4978702;28;20031;-79
2021/11/09 10:37:25;;;;;;;15.13;6.53;;;;;;;10.66;73.56;102018.94;4986514;28;20045;-78
2021/11/09 10:39:57;;;;;;;15.32;6.20;;;;;;;10.76;72.62;102015.59;4992821;28;20062;-78
2021/11/09 10:42:24;;;;;;;12.90;6.40;;;;;;;10.81;72.63;102013.06;4994203;28;20102;-78
2021/11/09 10:44:57;;;;;;;18.00;6.28;;;;;;;10.86;72.13;102014.03;4986561;28;20125;-78
2021/11/09 10:47:26;;;;;;;13.07;6.47;;;;;;;10.93;72.04;102011.50;4976246;28;20069;-78
2021/11/09 10:49:53;;;;;;;11.88;5.78;;;;;;;10.89;71.77;102012.31;4973114;28;20038;-78
2021/11/09 10:52:27;;;;;;;11.40;5.28;;;;;;;10.94;71.54;102009.75;4985296;28;20042;-78
2021/11/09 10:55:06;;;;;;;13.77;5.85;;;;;;;11.00;70.99;102004.53;4976300;28;20094;-78
2021/11/09 10:57:34;;;;;;;13.07;5.65;;;;;;;11.02;71.09;102007.22;4978889;28;20504;-80
2021/11/09 11:05:21;;;;;;;13.77;6.75;;;;;;;11.22;71.58;101999.59;4973895;28;20045;-79
2021/11/09 11:07:57;;;;;;;10.70;5.28;;;;;;;11.30;70.72;102003.25;4985066;28;20065;-79
2021/11/09 11:10:40;;;;;;;12.38;5.38;;;;;;;11.27;70.17;102009.38;4985747;28;20046;-79
2021/11/09 11:13:23;;;;;;;11.00;5.10;;;;;;;11.44;69.23;102008.72;4985636;28;20043;-80
2021/11/09 11:16:05;;;;;;;14.43;5.88;;;;;;;11.60;69.51;102008.06;4974036;28;20027;-79
2021/11/09 11:18:34;;;;;;;12.93;5.22;;;;;;;11.76;69.72;102017.97;4981748;28;20039;-79
2021/11/09 11:20:59;;;;;;;13.23;5.50;;;;;;;11.83;68.31;102006.59;4983324;28;20041;-79
2021/11/09 11:23:26;;;;;;;14.93;6.07;;;;;;;11.90;68.90;102014.66;4979796;28;20062;-78
2021/11/09 11:25:52;;;;;;;14.82;7.78;;;;;;;11.97;68.36;102013.84;4973189;28;20038;-78
2021/11/09 11:28:17;;;;;;;12.13;5.25;;;;;;;11.83;66.24;102006.59;4980027;28;20077;-79
2021/11/09 11:30:45;;;;;;;7.65;4.30;;;;;;;11.93;66.80;102010.28;4980006;28;20039;-78
2021/11/09 11:33:10;;;;;;;11.02;5.13;;;;;;;12.02;65.88;102009.50;4980024;28;20045;-79
2021/11/09 11:35:36;;;;;;;9.60;4.85;;;;;;;12.20;66.73;102014.97;4971813;28;20034;-78
2021/11/09 11:38:02;;;;;;;13.20;5.70;;;;;;;12.19;65.93;102004.41;4984319;28;20482;-79
2021/11/09 11:40:29;;;;;;;11.85;5.25;;;;;;;12.31;66.43;101999.22;4974724;28;20037;-79
2021/11/09 11:42:54;;;;;;;11.73;6.20;;;;;;;12.39;66.30;101996.63;4977263;28;20026;-78
2021/11/09 11:45:19;;;;;;;8.73;4.43;;;;;;;12.39;65.31;101997.56;4982693;28;20042;-78
2021/11/09 11:48:06;;;;;;;11.52;4.65;;;;;;;12.38;63.87;102005.47;4982596;28;20437;-78
2021/11/09 11:50:42;;;;;;;11.50;4.35;;;;;;;12.44;64.09;101994.94;4985362;28;20031;-78
2021/11/09 11:53:08;;;;;;;8.05;3.85;;;;;;;12.60;64.49;101991.56;4977892;28;20047;-78
2021/11/09 11:55:34;;;;;;;8.07;4.72;;;;;;;12.74;64.22;101983.72;4991469;28;20049;-79
2021/11/09 11:58:10;;;;;;;10.15;4.78;;;;;;;12.83;63.49;101986.44;4986493;28;20030;-78
2021/11/09 12:00:40;;;;;;;10.32;4.50;;;;;;;12.91;63.44;101981.19;4985622;28;20039;-78
2021/11/09 12:03:17;;;;;;;8.77;4.95;;;;;;;13.00;62.53;101978.63;4985723;28;20038;-78
2021/11/09 12:05:45;;;;;;;10.02;4.72;;;;;;;13.07;62.36;101983.09;4985286;28;20050;-79
2021/11/09 12:08:13;;;;;;;10.48;4.45;;;;;;;13.09;61.88;101983.09;4985256;28;20049;-78
2021/11/09 12:10:43;;;;;;;12.23;4.82;;;;;;;13.22;62.49;101981.41;4985250;28;20038;-79
2021/11/09 12:13:10;;;;;;;8.45;4.00;;;;;;;13.16;60.98;101977.84;4982884;28;20387;-78
2021/11/09 12:15:53;;;;;;;15.82;7.13;;;;;;;13.15;61.30;101977.81;4983045;28;20125;-78
2021/11/09 12:18:27;;;;;;;;;;;;;;;13.19;61.85;101971.69;4968435;28;20428;-79
2021/11/09 12:20:52;;;;;;;12.57;7.40;;;;;;;13.47;62.61;101972.75;4988603;28;19924;-79
2021/11/09 12:23:18;;;;;;;14.27;8.10;;;;;;;13.72;62.05;101967.53;4975389;28;20447;-79
2021/11/09 12:25:45;;;;;;;14.40;7.45;;;;;;;13.83;59.60;101960.50;4985160;28;20128;-79
2021/11/09 12:28:12;;;;;;;9.85;5.28;;;;;;;13.84;60.43;101967.59;4982311;28;20027;-79
2021/11/09 12:30:45;;;;;;;15.30;6.03;;;;;;;13.95;59.83;101965.84;4993148;28;20094;-78
2021/11/09 12:33:17;;;;;;;11.85;7.13;;;;;;;14.06;59.87;101962.34;4988046;28;20042;-79
2021/11/09 12:36:09;;;;;;;8.73;5.07;;;;;;;14.18;59.50;101965.03;4980557;28;20041;-79
2021/11/09 12:38:41;;;;;;;11.13;5.15;;;;;;;14.23;58.12;101955.31;4976535;28;20738;-79
2021/11/09 12:41:12;;;;;;;9.50;4.47;;;;;;;14.32;57.20;101955.31;4996018;28;20026;-79
2021/11/09 12:43:47;;;;;;;14.05;6.20;;;;;;;14.29;57.14;101949.13;4986624;28;20041;-79
2021/11/09 12:48:55;;;;;;;7.82;4.03;;;;;;;14.50;57.44;101948.25;4970508;28;20045;-79
2021/11/09 12:51:26;;;;;;;6.50;3.50;;;;;;;14.74;57.12;101953.56;4982500;28;20035;-79
2021/11/09 12:53:54;;;;;;;9.25;4.30;;;;;;;14.83;56.22;101948.25;4974523;28;20061;-79
2021/11/09 12:56:30;;;;;;;9.75;5.70;;;;;;;15.03;55.97;101953.53;4992633;28;20074;-79
2021/11/09 12:59:02;;;;;;;10.32;5.10;;;;;;;15.23;56.45;101957.94;4974837;28;20042;-79
2021/11/09 13:04:18;;;;;;;13.85;9.00;;;;;;;15.57;55.19;101954.25;4975450;28;20030;-79
2021/11/09 13:06:50;;;;;;;12.20;5.93;;;;;;;15.83;54.40;101945.31;4988255;28;20039;-79
2021/11/09 13:09:20;;;;;;;10.10;5.18;;;;;;;16.06;54.20;101946.94;4983971;28;20034;-79
2021/11/09 13:11:50;;;;;;;10.10;3.95;;;;;;;16.26;53.16;101944.16;4993093;28;20054;-79
2021/11/09 13:14:17;;;;;;;10.68;3.80;;;;;;;16.08;51.53;101947.81;4985500;28;20039;-79
2021/11/09 13:16:50;;;;;;;12.88;4.70;;;;;;;16.25;52.25;101939.72;4977263;28;20025;-79
2021/11/09 13:19:18;;;;;;;8.73;4.15;;;;;;;16.35;52.69;101941.44;4973301;28;20039;-79
2021/11/09 13:21:52;;;;;;;7.05;3.78;;;;;;;16.55;51.14;101941.25;4983942;28;20560;-79
2021/11/09 13:24:19;;;;;;;8.52;4.57;;;;;;;16.52;51.78;101935.94;4983204;28;20065;-79
2021/11/09 13:26:53;;;;;;;11.35;3.88;;;;;;;16.54;50.46;101940.38;4984848;28;20035;-79
2021/11/09 13:29:18;;;;;;;6.40;3.08;;;;;;;16.36;50.88;101936.06;4985257;28;20042;-79
2021/11/09 13:32:28;;;;;;;8.18;3.80;;;;;;;16.36;50.41;101940.53;4954514;28;20033;-79
2021/11/09 13:35:40;;;;;;;8.02;3.97;;;;;;;16.35;49.82;101942.31;4986702;28;20053;-79